Terminal Aerodrome Forecast
Issued by NWS Cleveland, OH

Home | Current Version | Previous Version | Text Only | Print | Product List | Glossary Off
Versions: 1 2 3 4 5 6 7 8 9 10 11 12 13 14 15 16 17 18 19 20 21

000
FTUS41 KCLE 271700 RRA
TAFERI
TAF
KERI 271742Z 2718/2818 01010KT 1 1/2SM -SN BKN009 OVC015
      TEMPO 2718/2722 3SM -SN SCT009
     FM272300 36008KT 3SM -SN OVC020
     FM280400 35008KT P6SM BKN025
     FM280800 32005KT P6SM SCT025=

USA.gov is the U.S. government's official web portal to all federal, state and local government web resources and services.